AirNav   Duncan Aviation - Near you to keep you flying
 
 1024 users online  

8NA9 Hashbarger Farm Airstrip
Hope, North Dakota, USA

GOING TO HOPE?


FAA INFORMATION EFFECTIVE 03 NOVEMBER 2022

Location

FAA Identifier: 8NA9
Lat/Long: 47-19-40.9560N 097-40-44.3440W
47-19.682600N 097-40.739067W
47.3280433,-97.6789844
(estimated)
Elevation: 1195 ft. / 364 m (estimated)
Variation: 08E (1980)
From city: 2 miles E of HOPE, ND
Time zone: UTC -6 (UTC -5 during Daylight Saving Time)
Zip code: 58046

Airport Operations

Airport use: Private use. Permission required prior to landing
Activation date: 12/1986
Control tower: no
ARTCC: MINNEAPOLIS CENTER
FSS: GRAND FORKS FLIGHT SERVICE STATION
Attendance: UNATNDD
Wind indicator: yes
Segmented circle: no

Airport Communications

WX AWOS-3 at S32 (18 nm W): 118.750 (701-797-2566)

Airport Services

Runway Information

Runway 17/35

Dimensions: 2500 x 80 ft. / 762 x 24 m
Surface: concrete
RUNWAY 17  RUNWAY 35
Traffic pattern: leftleft
Obstructions: noneroad, 300 ft. from runway

Runway 8/26

Dimensions: 2000 x 40 ft. / 610 x 12 m
Surface: turf
RUNWAY 8  RUNWAY 26
Traffic pattern: leftleft
Obstructions: 15 ft. trees, 500 ft. from runway40 ft. trees, 80 ft. from runway

Airport Ownership and Management from official FAA records

Ownership: Privately-owned
Owner: LUCIETTA HASHBARGER
555 40TH ST. S. #321, #321
FARGO, ND 58103
Phone 701-298-3097
Manager: JOEL HASHBARGER
13396 6TH ST. SE
HOPE, ND 58046-9065
Phone 701-945-2687

Airport Operational Statistics

Aircraft based on the field: 3
Single engine airplanes: 3
    

Additional Remarks

FOR CD CTC MINNEAPOLIS ARTCC AT 651-463-5588.

Instrument Procedures

There are no published instrument procedures at 8NA9.

Some nearby airports with instrument procedures:

S32 - Cooperstown Municipal Airport (18 nm W)
4V4 - Northwood Municipal Airport-Vince Field (24 nm N)
3H4 - Hillsboro Municipal Airport (25 nm E)
KBAC - Barnes County Municipal Airport (27 nm SW)
5N8 - Casselton Robert Miller Regional Airport (34 nm SE)
 
Loc | Ops | Rwys | IFR | FBO | Links
Com | Nav | Svcs | Stats | Notes

Bismarck Aero Center
AirBoss

 
Area around 8NA9 (Hashbarger Farm Airstrip)
 
Road maps at: MapQuest Bing Google
 
Aerial photo
No photo
 
Sectional chart

 
Airport distance calculator
Flying to Hashbarger Farm Airstrip? Find the distance to fly.

From to 8NA9

Sunrise and sunset
Times for 26-Nov-2022
 Local
(UTC-6)
 Zulu
(UTC)
Morning civil twilight07:1713:17
Sunrise07:5213:52
Sunset16:4522:45
Evening civil twilight17:1923:19

Current date and time
Zulu (UTC)  26-Nov-2022 17:28:45
Local (UTC-6)  26-Nov-2022 11:28:45
 
METAR
KS32 
18nm W 
261715Z AUTO 33014G20KT 10SM SCT095 03/03 A2977 RMK AO2 TSNO
KBAC 
27nm SW 
261715Z AUTO 33018KT 10SM CLR 03/01 A2977 RMK AO2
TAF
KGFK 
42nm NE 
261124Z 2612/2712 28006KT P6SM BKN230 FM261500 32011KT P6SM BKN210 FM261700 32012G20KT P6SM BKN190 FM262300 30009KT P6SM BKN230
KFAR 
42nm SE 
261124Z 2612/2712 21008KT P6SM SCT250 FM261500 30008KT P6SM SCT250 FM261800 33012G20KT P6SM BKN240 FM270200 32009KT P6SM BKN220
KJMS 
47nm SW 
261401Z 2614/2712 32015G25KT P6SM BKN250 FM261800 33016G29KT P6SM OVC200 FM262300 32012G20KT P6SM BKN200 FM270800 VRB06KT P6SM FEW250
NOTAMs
Click for the latest NOTAMs
NOTAMs are issued by the DoD/FAA and will open in a separate window not controlled by AirNav.

 

 
 

Would you like to see your business listed on this page?

 If your business provides an interesting product or service to pilots, flight crews, aircraft, or users of the Hashbarger Farm Airstrip, you should consider listing it here.  To start the listing process, click on the button below
 
Add a business
 

Other Pages about Hashbarger Farm Airstrip

Update a link
 
Copyright © AirNav, LLC. All rights reserved. Privacy Policy  Contact